sensor_id;sensor_type;location;lat;lon;timestamp;pressure;altitude;pressure_sealevel;temperature;humidity
64340;BME280;63709;53.258;-8.814;2023-12-28T00:01:43;99064.88;;;11.24;100.00
64340;BME280;63709;53.258;-8.814;2023-12-28T00:04:08;99084.06;;;11.27;100.00
64340;BME280;63709;53.258;-8.814;2023-12-28T00:06:34;99096.41;;;11.28;100.00
64340;BME280;63709;53.258;-8.814;2023-12-28T00:08:59;99105.28;;;11.45;100.00
64340;BME280;63709;53.258;-8.814;2023-12-28T00:11:26;99121.19;;;11.47;100.00
64340;BME280;63709;53.258;-8.814;2023-12-28T00:13:51;99122.66;;;11.49;100.00
64340;BME280;63709;53.258;-8.814;2023-12-28T00:16:17;99118.53;;;11.63;100.00
64340;BME280;63709;53.258;-8.814;2023-12-28T00:18:42;99142.75;;;11.61;100.00
64340;BME280;63709;53.258;-8.814;2023-12-28T00:21:08;99152.94;;;11.66;100.00
64340;BME280;63709;53.258;-8.814;2023-12-28T00:23:33;99144.63;;;11.69;100.00
64340;BME280;63709;53.258;-8.814;2023-12-28T00:25:59;99151.28;;;11.65;100.00
64340;BME280;63709;53.258;-8.814;2023-12-28T00:28:24;99152.63;;;11.69;100.00
64340;BME280;63709;53.258;-8.814;2023-12-28T00:30:49;99162.75;;;11.49;100.00
64340;BME280;63709;53.258;-8.814;2023-12-28T00:33:15;99176.97;;;11.58;100.00
64340;BME280;63709;53.258;-8.814;2023-12-28T00:35:40;99179.47;;;11.51;100.00
64340;BME280;63709;53.258;-8.814;2023-12-28T00:38:06;99192.00;;;11.51;100.00
64340;BME280;63709;53.258;-8.814;2023-12-28T00:40:31;99194.38;;;11.62;100.00
64340;BME280;63709;53.258;-8.814;2023-12-28T00:42:56;99204.03;;;11.55;100.00
64340;BME280;63709;53.258;-8.814;2023-12-28T00:45:22;99205.72;;;11.64;100.00
64340;BME280;63709;53.258;-8.814;2023-12-28T00:47:47;99209.41;;;11.71;100.00
64340;BME280;63709;53.258;-8.814;2023-12-28T00:50:13;99224.28;;;11.74;100.00
64340;BME280;63709;53.258;-8.814;2023-12-28T00:52:40;99221.88;;;11.89;100.00
64340;BME280;63709;53.258;-8.814;2023-12-28T00:55:06;99233.84;;;11.76;100.00
64340;BME280;63709;53.258;-8.814;2023-12-28T00:57:34;99221.13;;;11.78;100.00
64340;BME280;63709;53.258;-8.814;2023-12-28T01:00:00;99246.84;;;11.37;100.00
64340;BME280;63709;53.258;-8.814;2023-12-28T01:02:25;99240.81;;;11.61;100.00
64340;BME280;63709;53.258;-8.814;2023-12-28T01:04:51;99242.56;;;11.52;100.00
64340;BME280;63709;53.258;-8.814;2023-12-28T01:07:17;99236.59;;;11.58;100.00
64340;BME280;63709;53.258;-8.814;2023-12-28T01:09:43;99251.50;;;11.61;100.00
64340;BME280;63709;53.258;-8.814;2023-12-28T01:12:08;99256.75;;;11.45;100.00
64340;BME280;63709;53.258;-8.814;2023-12-28T01:14:34;99265.66;;;11.53;100.00
64340;BME280;63709;53.258;-8.814;2023-12-28T01:16:59;99279.94;;;11.44;100.00
64340;BME280;63709;53.258;-8.814;2023-12-28T01:19:25;99278.91;;;11.37;100.00
64340;BME280;63709;53.258;-8.814;2023-12-28T01:21:50;99283.09;;;11.39;100.00
64340;BME280;63709;53.258;-8.814;2023-12-28T01:24:16;99275.25;;;11.72;100.00
64340;BME280;63709;53.258;-8.814;2023-12-28T01:26:41;99270.03;;;11.71;100.00
64340;BME280;63709;53.258;-8.814;2023-12-28T01:29:07;99276.38;;;11.61;100.00
64340;BME280;63709;53.258;-8.814;2023-12-28T01:31:32;99294.91;;;11.63;100.00
64340;BME280;63709;53.258;-8.814;2023-12-28T01:33:58;99286.84;;;11.55;100.00
64340;BME280;63709;53.258;-8.814;2023-12-28T01:36:23;99298.63;;;11.70;100.00
64340;BME280;63709;53.258;-8.814;2023-12-28T01:38:48;99301.59;;;11.67;100.00
64340;BME280;63709;53.258;-8.814;2023-12-28T01:41:14;99313.28;;;11.66;100.00
64340;BME280;63709;53.258;-8.814;2023-12-28T01:43:43;99304.31;;;11.75;100.00
64340;BME280;63709;53.258;-8.814;2023-12-28T01:46:16;99294.59;;;11.66;100.00
64340;BME280;63709;53.258;-8.814;2023-12-28T01:48:46;99312.50;;;11.74;100.00
64340;BME280;63709;53.258;-8.814;2023-12-28T01:51:14;99321.34;;;11.74;100.00
64340;BME280;63709;53.258;-8.814;2023-12-28T01:53:40;99323.69;;;11.69;100.00
64340;BME280;63709;53.258;-8.814;2023-12-28T01:56:06;99319.25;;;11.86;100.00
64340;BME280;63709;53.258;-8.814;2023-12-28T01:58:33;99313.09;;;11.94;100.00
64340;BME280;63709;53.258;-8.814;2023-12-28T02:01:01;99309.47;;;11.95;100.00
64340;BME280;63709;53.258;-8.814;2023-12-28T02:03:27;99317.75;;;12.26;100.00
64340;BME280;63709;53.258;-8.814;2023-12-28T02:05:53;99322.78;;;12.37;100.00
64340;BME280;63709;53.258;-8.814;2023-12-28T02:08:18;99326.59;;;12.26;100.00
64340;BME280;63709;53.258;-8.814;2023-12-28T02:10:44;99323.56;;;12.13;100.00
64340;BME280;63709;53.258;-8.814;2023-12-28T02:13:09;99337.56;;;12.07;100.00
64340;BME280;63709;53.258;-8.814;2023-12-28T02:15:35;99348.97;;;12.17;100.00
64340;BME280;63709;53.258;-8.814;2023-12-28T02:18:05;99358.56;;;11.94;100.00
64340;BME280;63709;53.258;-8.814;2023-12-28T02:20:33;99341.56;;;12.03;100.00
64340;BME280;63709;53.258;-8.814;2023-12-28T02:22:59;99345.84;;;11.88;100.00
64340;BME280;63709;53.258;-8.814;2023-12-28T02:25:25;99338.50;;;11.90;100.00
64340;BME280;63709;53.258;-8.814;2023-12-28T02:27:51;99364.91;;;11.93;100.00
64340;BME280;63709;53.258;-8.814;2023-12-28T02:30:18;99366.97;;;11.99;100.00
64340;BME280;63709;53.258;-8.814;2023-12-28T02:35:34;99371.94;;;11.94;100.00
64340;BME280;63709;53.258;-8.814;2023-12-28T02:38:08;99371.50;;;11.80;100.00
64340;BME280;63709;53.258;-8.814;2023-12-28T02:40:39;99364.16;;;11.82;100.00
64340;BME280;63709;53.258;-8.814;2023-12-28T02:43:06;99369.09;;;11.95;100.00
64340;BME280;63709;53.258;-8.814;2023-12-28T02:45:31;99357.19;;;11.90;100.00
64340;BME280;63709;53.258;-8.814;2023-12-28T02:47:57;99367.00;;;11.81;100.00
64340;BME280;63709;53.258;-8.814;2023-12-28T02:50:22;99362.66;;;11.80;100.00
64340;BME280;63709;53.258;-8.814;2023-12-28T02:52:48;99362.19;;;11.84;100.00
64340;BME280;63709;53.258;-8.814;2023-12-28T02:55:15;99363.91;;;11.94;100.00
64340;BME280;63709;53.258;-8.814;2023-12-28T02:57:40;99368.09;;;11.96;100.00
64340;BME280;63709;53.258;-8.814;2023-12-28T03:00:06;99358.03;;;11.90;100.00
64340;BME280;63709;53.258;-8.814;2023-12-28T03:02:37;99357.13;;;12.07;100.00
64340;BME280;63709;53.258;-8.814;2023-12-28T03:05:04;99345.28;;;12.10;100.00
64340;BME280;63709;53.258;-8.814;2023-12-28T03:07:30;99336.47;;;12.26;100.00
64340;BME280;63709;53.258;-8.814;2023-12-28T03:09:55;99348.97;;;12.09;100.00
64340;BME280;63709;53.258;-8.814;2023-12-28T03:12:21;99336.59;;;12.16;100.00
64340;BME280;63709;53.258;-8.814;2023-12-28T03:14:46;99338.56;;;12.06;100.00
64340;BME280;63709;53.258;-8.814;2023-12-28T03:17:13;99339.81;;;12.28;100.00
64340;BME280;63709;53.258;-8.814;2023-12-28T03:19:39;99336.41;;;12.09;100.00
64340;BME280;63709;53.258;-8.814;2023-12-28T03:22:04;99341.50;;;12.29;100.00
64340;BME280;63709;53.258;-8.814;2023-12-28T03:24:30;99328.53;;;12.08;100.00
64340;BME280;63709;53.258;-8.814;2023-12-28T03:26:55;99336.00;;;12.39;100.00
64340;BME280;63709;53.258;-8.814;2023-12-28T03:29:21;99333.34;;;12.39;100.00
64340;BME280;63709;53.258;-8.814;2023-12-28T03:31:46;99333.84;;;12.42;100.00
64340;BME280;63709;53.258;-8.814;2023-12-28T03:34:11;99336.16;;;12.29;100.00
64340;BME280;63709;53.258;-8.814;2023-12-28T03:36:37;99334.91;;;12.15;100.00
64340;BME280;63709;53.258;-8.814;2023-12-28T03:39:02;99345.84;;;12.30;100.00
64340;BME280;63709;53.258;-8.814;2023-12-28T03:41:28;99347.34;;;12.32;100.00
64340;BME280;63709;53.258;-8.814;2023-12-28T03:43:54;99350.66;;;12.26;100.00
64340;BME280;63709;53.258;-8.814;2023-12-28T03:46:19;99379.91;;;12.20;100.00
64340;BME280;63709;53.258;-8.814;2023-12-28T03:48:45;99377.28;;;12.28;100.00
64340;BME280;63709;53.258;-8.814;2023-12-28T03:51:16;99366.22;;;11.89;100.00
64340;BME280;63709;53.258;-8.814;2023-12-28T03:53:43;99362.81;;;11.52;100.00
64340;BME280;63709;53.258;-8.814;2023-12-28T03:56:19;99374.44;;;11.69;100.00
64340;BME280;63709;53.258;-8.814;2023-12-28T03:58:44;99371.03;;;11.59;100.00
64340;BME280;63709;53.258;-8.814;2023-12-28T04:01:10;99360.25;;;11.69;100.00
64340;BME280;63709;53.258;-8.814;2023-12-28T04:03:35;99369.59;;;11.65;100.00
64340;BME280;63709;53.258;-8.814;2023-12-28T04:06:00;99380.91;;;11.84;100.00
64340;BME280;63709;53.258;-8.814;2023-12-28T04:08:26;99373.72;;;11.85;100.00
64340;BME280;63709;53.258;-8.814;2023-12-28T04:10:51;99371.31;;;11.74;100.00
64340;BME280;63709;53.258;-8.814;2023-12-28T04:13:16;99370.78;;;11.70;100.00
64340;BME280;63709;53.258;-8.814;2023-12-28T04:15:42;99371.47;;;11.98;100.00
64340;BME280;63709;53.258;-8.814;2023-12-28T04:18:10;99382.00;;;12.00;100.00
64340;BME280;63709;53.258;-8.814;2023-12-28T04:20:36;99383.53;;;12.02;100.00
64340;BME280;63709;53.258;-8.814;2023-12-28T04:23:01;99383.66;;;12.01;100.00
64340;BME280;63709;53.258;-8.814;2023-12-28T04:25:27;99385.69;;;11.99;100.00
64340;BME280;63709;53.258;-8.814;2023-12-28T04:27:52;99385.19;;;12.03;100.00
64340;BME280;63709;53.258;-8.814;2023-12-28T04:30:18;99368.09;;;11.96;100.00
64340;BME280;63709;53.258;-8.814;2023-12-28T04:32:43;99372.22;;;12.17;100.00
64340;BME280;63709;53.258;-8.814;2023-12-28T04:35:08;99352.28;;;12.11;100.00
64340;BME280;63709;53.258;-8.814;2023-12-28T04:37:34;99355.38;;;11.90;100.00
64340;BME280;63709;53.258;-8.814;2023-12-28T04:40:00;99344.34;;;11.93;100.00
64340;BME280;63709;53.258;-8.814;2023-12-28T04:42:26;99340.31;;;11.89;100.00
64340;BME280;63709;53.258;-8.814;2023-12-28T04:44:51;99334.88;;;11.73;100.00
64340;BME280;63709;53.258;-8.814;2023-12-28T04:47:16;99316.22;;;11.81;100.00
64340;BME280;63709;53.258;-8.814;2023-12-28T04:49:42;99313.34;;;11.74;100.00
64340;BME280;63709;53.258;-8.814;2023-12-28T04:52:07;99319.06;;;11.79;100.00
64340;BME280;63709;53.258;-8.814;2023-12-28T04:54:33;99316.13;;;11.65;100.00
64340;BME280;63709;53.258;-8.814;2023-12-28T04:56:58;99313.66;;;11.71;100.00
64340;BME280;63709;53.258;-8.814;2023-12-28T04:59:24;99316.13;;;11.65;100.00
64340;BME280;63709;53.258;-8.814;2023-12-28T05:01:50;99315.25;;;11.56;100.00
64340;BME280;63709;53.258;-8.814;2023-12-28T05:04:15;99323.91;;;11.50;100.00
64340;BME280;63709;53.258;-8.814;2023-12-28T05:06:40;99316.03;;;11.48;100.00
64340;BME280;63709;53.258;-8.814;2023-12-28T05:09:06;99317.34;;;11.44;100.00
64340;BME280;63709;53.258;-8.814;2023-12-28T05:11:31;99306.09;;;11.32;100.00
64340;BME280;63709;53.258;-8.814;2023-12-28T05:13:57;99322.44;;;11.29;100.00
64340;BME280;63709;53.258;-8.814;2023-12-28T05:16:22;99311.53;;;11.23;100.00
64340;BME280;63709;53.258;-8.814;2023-12-28T05:18:47;99307.88;;;11.24;100.00
64340;BME280;63709;53.258;-8.814;2023-12-28T05:21:13;99312.34;;;11.23;100.00
64340;BME280;63709;53.258;-8.814;2023-12-28T05:23:39;99303.81;;;11.20;100.00
64340;BME280;63709;53.258;-8.814;2023-12-28T05:26:05;99304.69;;;11.20;100.00
64340;BME280;63709;53.258;-8.814;2023-12-28T05:28:31;99299.78;;;11.15;100.00
64340;BME280;63709;53.258;-8.814;2023-12-28T05:30:56;99294.72;;;11.30;100.00
64340;BME280;63709;53.258;-8.814;2023-12-28T05:33:25;99303.38;;;11.24;100.00
64340;BME280;63709;53.258;-8.814;2023-12-28T05:35:51;99286.03;;;11.28;100.00
64340;BME280;63709;53.258;-8.814;2023-12-28T05:38:16;99283.84;;;10.98;100.00
64340;BME280;63709;53.258;-8.814;2023-12-28T05:40:43;99281.34;;;11.30;100.00
64340;BME280;63709;53.258;-8.814;2023-12-28T05:43:10;99276.72;;;11.32;100.00
64340;BME280;63709;53.258;-8.814;2023-12-28T05:45:35;99279.94;;;11.44;100.00
64340;BME280;63709;53.258;-8.814;2023-12-28T05:48:01;99281.00;;;11.51;100.00
64340;BME280;63709;53.258;-8.814;2023-12-28T05:50:26;99291.19;;;11.56;100.00
64340;BME280;63709;53.258;-8.814;2023-12-28T05:52:52;99273.03;;;11.68;100.00
64340;BME280;63709;53.258;-8.814;2023-12-28T05:55:17;99269.72;;;11.66;100.00
64340;BME280;63709;53.258;-8.814;2023-12-28T05:57:43;99272.44;;;11.82;100.00
64340;BME280;63709;53.258;-8.814;2023-12-28T06:00:09;99280.69;;;11.89;100.00
64340;BME280;63709;53.258;-8.814;2023-12-28T06:02:35;99272.66;;;11.89;100.00
64340;BME280;63709;53.258;-8.814;2023-12-28T06:05:01;99275.38;;;12.05;100.00
64340;BME280;63709;53.258;-8.814;2023-12-28T06:07:26;99268.97;;;11.90;100.00
64340;BME280;63709;53.258;-8.814;2023-12-28T06:09:51;99265.38;;;12.07;100.00
64340;BME280;63709;53.258;-8.814;2023-12-28T06:12:17;99254.16;;;12.03;100.00
64340;BME280;63709;53.258;-8.814;2023-12-28T06:14:42;99260.03;;;12.15;100.00
64340;BME280;63709;53.258;-8.814;2023-12-28T06:17:08;99229.78;;;12.06;100.00
64340;BME280;63709;53.258;-8.814;2023-12-28T06:19:33;99245.31;;;12.11;100.00
64340;BME280;63709;53.258;-8.814;2023-12-28T06:21:59;99253.94;;;11.89;100.00
64340;BME280;63709;53.258;-8.814;2023-12-28T06:24:24;99257.91;;;11.76;100.00
64340;BME280;63709;53.258;-8.814;2023-12-28T06:26:50;99227.03;;;11.90;100.00
64340;BME280;63709;53.258;-8.814;2023-12-28T06:29:16;99248.59;;;11.89;100.00
64340;BME280;63709;53.258;-8.814;2023-12-28T06:31:41;99253.06;;;11.80;100.00
64340;BME280;63709;53.258;-8.814;2023-12-28T06:34:07;99268.31;;;11.88;100.00
64340;BME280;63709;53.258;-8.814;2023-12-28T06:36:33;99207.09;;;11.76;100.00
64340;BME280;63709;53.258;-8.814;2023-12-28T06:38:59;99196.75;;;11.81;100.00
64340;BME280;63709;53.258;-8.814;2023-12-28T06:41:25;99210.16;;;11.90;100.00
64340;BME280;63709;53.258;-8.814;2023-12-28T06:43:51;99193.44;;;11.79;100.00
64340;BME280;63709;53.258;-8.814;2023-12-28T06:46:17;99209.09;;;11.74;100.00
64340;BME280;63709;53.258;-8.814;2023-12-28T06:48:42;99185.72;;;11.76;100.00
64340;BME280;63709;53.258;-8.814;2023-12-28T06:51:09;99195.38;;;11.61;100.00
64340;BME280;63709;53.258;-8.814;2023-12-28T06:53:34;99199.03;;;11.60;100.00
64340;BME280;63709;53.258;-8.814;2023-12-28T06:56:00;99203.38;;;11.61;100.00
64340;BME280;63709;53.258;-8.814;2023-12-28T06:58:25;99210.44;;;11.78;100.00
64340;BME280;63709;53.258;-8.814;2023-12-28T07:00:51;99211.38;;;11.95;100.00
64340;BME280;63709;53.258;-8.814;2023-12-28T07:03:16;99222.75;;;12.05;100.00
64340;BME280;63709;53.258;-8.814;2023-12-28T07:05:41;99224.56;;;11.54;100.00
64340;BME280;63709;53.258;-8.814;2023-12-28T07:08:07;99207.84;;;11.86;100.00
64340;BME280;63709;53.258;-8.814;2023-12-28T07:10:32;99219.13;;;11.72;100.00
64340;BME280;63709;53.258;-8.814;2023-12-28T07:12:58;99205.97;;;11.45;100.00
64340;BME280;63709;53.258;-8.814;2023-12-28T07:15:24;99193.63;;;11.44;100.00
64340;BME280;63709;53.258;-8.814;2023-12-28T07:17:50;99220.50;;;11.42;100.00
64340;BME280;63709;53.258;-8.814;2023-12-28T07:20:15;99208.59;;;11.28;100.00
64340;BME280;63709;53.258;-8.814;2023-12-28T07:22:41;99201.63;;;11.44;100.00
64340;BME280;63709;53.258;-8.814;2023-12-28T07:25:07;99196.63;;;11.41;100.00
64340;BME280;63709;53.258;-8.814;2023-12-28T07:27:33;99203.97;;;11.38;100.00
64340;BME280;63709;53.258;-8.814;2023-12-28T07:30:00;99202.28;;;11.37;100.00
64340;BME280;63709;53.258;-8.814;2023-12-28T07:32:25;99190.84;;;11.53;100.00
64340;BME280;63709;53.258;-8.814;2023-12-28T07:34:53;99194.38;;;11.62;100.00
64340;BME280;63709;53.258;-8.814;2023-12-28T07:37:18;99182.16;;;11.59;100.00
64340;BME280;63709;53.258;-8.814;2023-12-28T07:39:44;99180.47;;;11.50;100.00
64340;BME280;63709;53.258;-8.814;2023-12-28T07:42:09;99161.91;;;11.49;100.00
64340;BME280;63709;53.258;-8.814;2023-12-28T07:44:35;99137.06;;;11.56;100.00
64340;BME280;63709;53.258;-8.814;2023-12-28T07:47:01;99135.88;;;11.51;100.00
64340;BME280;63709;53.258;-8.814;2023-12-28T07:49:27;99127.38;;;11.55;100.00
64340;BME280;63709;53.258;-8.814;2023-12-28T07:51:52;99131.53;;;11.50;100.00
64340;BME280;63709;53.258;-8.814;2023-12-28T07:54:17;99121.88;;;11.57;100.00
64340;BME280;63709;53.258;-8.814;2023-12-28T07:56:43;99123.03;;;11.54;100.00
64340;BME280;63709;53.258;-8.814;2023-12-28T07:59:08;99125.50;;;11.48;100.00
64340;BME280;63709;53.258;-8.814;2023-12-28T08:01:35;99136.09;;;11.23;100.00
64340;BME280;63709;53.258;-8.814;2023-12-28T08:04:00;99140.69;;;11.39;100.00
64340;BME280;63709;53.258;-8.814;2023-12-28T08:06:28;99141.72;;;11.46;100.00
64340;BME280;63709;53.258;-8.814;2023-12-28T08:08:54;99128.66;;;11.35;100.00
64340;BME280;63709;53.258;-8.814;2023-12-28T08:11:20;99142.13;;;11.25;100.00
64340;BME280;63709;53.258;-8.814;2023-12-28T08:13:45;99150.50;;;11.30;100.00
64340;BME280;63709;53.258;-8.814;2023-12-28T08:16:11;99157.16;;;11.26;100.00
64340;BME280;63709;53.258;-8.814;2023-12-28T08:18:37;99174.44;;;11.06;100.00
64340;BME280;63709;53.258;-8.814;2023-12-28T08:21:02;99165.06;;;11.44;100.00
64340;BME280;63709;53.258;-8.814;2023-12-28T08:23:28;99163.91;;;11.38;100.00
64340;BME280;63709;53.258;-8.814;2023-12-28T08:25:53;99166.41;;;11.40;100.00
64340;BME280;63709;53.258;-8.814;2023-12-28T08:28:19;99173.81;;;11.62;100.00
64340;BME280;63709;53.258;-8.814;2023-12-28T08:30:44;99179.25;;;11.36;100.00
64340;BME280;63709;53.258;-8.814;2023-12-28T08:33:09;99153.44;;;11.53;100.00
64340;BME280;63709;53.258;-8.814;2023-12-28T08:35:35;99172.91;;;11.46;100.00
64340;BME280;63709;53.258;-8.814;2023-12-28T08:38:01;99175.97;;;11.59;100.00
64340;BME280;63709;53.258;-8.814;2023-12-28T08:40:26;99171.16;;;11.62;100.00
64340;BME280;63709;53.258;-8.814;2023-12-28T08:42:51;99172.50;;;11.67;100.00
64340;BME280;63709;53.258;-8.814;2023-12-28T08:45:17;99178.59;;;11.85;100.00
64340;BME280;63709;53.258;-8.814;2023-12-28T08:47:42;99171.56;;;11.84;100.00
64340;BME280;63709;53.258;-8.814;2023-12-28T08:50:08;99182.97;;;11.94;100.00
64340;BME280;63709;53.258;-8.814;2023-12-28T08:52:34;99193.56;;;11.70;100.00
64340;BME280;63709;53.258;-8.814;2023-12-28T08:54:59;99202.53;;;11.60;100.00
64340;BME280;63709;53.258;-8.814;2023-12-28T08:57:26;99193.88;;;11.67;100.00
64340;BME280;63709;53.258;-8.814;2023-12-28T08:59:51;99209.28;;;11.81;100.00
64340;BME280;63709;53.258;-8.814;2023-12-28T09:02:17;99212.06;;;11.63;100.00
64340;BME280;63709;53.258;-8.814;2023-12-28T09:04:43;99214.03;;;11.87;100.00
64340;BME280;63709;53.258;-8.814;2023-12-28T09:07:09;99235.25;;;11.89;100.00
64340;BME280;63709;53.258;-8.814;2023-12-28T09:09:34;99221.34;;;11.85;100.00
64340;BME280;63709;53.258;-8.814;2023-12-28T09:12:00;99234.41;;;11.96;100.00
64340;BME280;63709;53.258;-8.814;2023-12-28T09:14:25;99224.22;;;12.00;100.00
64340;BME280;63709;53.258;-8.814;2023-12-28T09:16:51;99253.16;;;12.04;100.00
64340;BME280;63709;53.258;-8.814;2023-12-28T09:19:16;99255.50;;;12.07;100.00
64340;BME280;63709;53.258;-8.814;2023-12-28T09:21:42;99263.19;;;12.02;100.00
64340;BME280;63709;53.258;-8.814;2023-12-28T09:24:08;99271.88;;;12.04;100.00
64340;BME280;63709;53.258;-8.814;2023-12-28T09:26:33;99283.56;;;11.95;100.00
64340;BME280;63709;53.258;-8.814;2023-12-28T09:28:59;99272.00;;;11.86;100.00
64340;BME280;63709;53.258;-8.814;2023-12-28T09:31:24;99287.75;;;11.98;100.00
64340;BME280;63709;53.258;-8.814;2023-12-28T09:33:50;99296.66;;;12.15;100.00
64340;BME280;63709;53.258;-8.814;2023-12-28T09:36:15;99295.22;;;11.60;100.00
64340;BME280;63709;53.258;-8.814;2023-12-28T09:38:42;99299.06;;;11.92;100.00
64340;BME280;63709;53.258;-8.814;2023-12-28T09:41:11;99302.28;;;11.95;100.00
64340;BME280;63709;53.258;-8.814;2023-12-28T09:43:53;99304.94;;;11.95;100.00
64340;BME280;63709;53.258;-8.814;2023-12-28T09:46:18;99317.84;;;12.08;100.00
64340;BME280;63709;53.258;-8.814;2023-12-28T09:48:44;99320.00;;;12.04;100.00
64340;BME280;63709;53.258;-8.814;2023-12-28T09:51:10;99329.22;;;12.02;100.00
64340;BME280;63709;53.258;-8.814;2023-12-28T09:53:36;99324.81;;;11.93;100.00
64340;BME280;63709;53.258;-8.814;2023-12-28T09:56:02;99329.06;;;11.77;100.00
64340;BME280;63709;53.258;-8.814;2023-12-28T09:58:28;99331.97;;;11.58;100.00
64340;BME280;63709;53.258;-8.814;2023-12-28T10:00:56;99345.03;;;11.95;100.00
64340;BME280;63709;53.258;-8.814;2023-12-28T10:03:21;99342.34;;;11.87;100.00
64340;BME280;63709;53.258;-8.814;2023-12-28T10:05:47;99345.03;;;11.87;100.00
64340;BME280;63709;53.258;-8.814;2023-12-28T10:08:16;99360.22;;;11.86;100.00
64340;BME280;63709;53.258;-8.814;2023-12-28T10:10:43;99360.97;;;11.53;100.00
64340;BME280;63709;53.258;-8.814;2023-12-28T10:13:09;99363.03;;;11.85;100.00
64340;BME280;63709;53.258;-8.814;2023-12-28T10:15:37;99373.94;;;11.92;100.00
64340;BME280;63709;53.258;-8.814;2023-12-28T10:18:04;99372.63;;;11.96;100.00
64340;BME280;63709;53.258;-8.814;2023-12-28T10:20:31;99376.63;;;11.92;100.00
64340;BME280;63709;53.258;-8.814;2023-12-28T10:22:57;99383.94;;;11.90;100.00
64340;BME280;63709;53.258;-8.814;2023-12-28T10:25:23;99381.63;;;11.86;100.00
64340;BME280;63709;53.258;-8.814;2023-12-28T10:27:53;99384.59;;;12.18;100.00
64340;BME280;63709;53.258;-8.814;2023-12-28T10:30:20;99379.16;;;12.35;100.00
64340;BME280;63709;53.258;-8.814;2023-12-28T10:32:45;99397.19;;;12.33;100.00
64340;BME280;63709;53.258;-8.814;2023-12-28T10:35:11;99398.94;;;12.67;100.00
64340;BME280;63709;53.258;-8.814;2023-12-28T10:37:39;99399.44;;;12.54;100.00
64340;BME280;63709;53.258;-8.814;2023-12-28T10:40:09;99402.72;;;12.40;100.00
64340;BME280;63709;53.258;-8.814;2023-12-28T10:43:01;99411.91;;;12.38;100.00
64340;BME280;63709;53.258;-8.814;2023-12-28T10:45:30;99416.31;;;12.55;100.00
64340;BME280;63709;53.258;-8.814;2023-12-28T10:51:09;99423.22;;;12.23;100.00
64340;BME280;63709;53.258;-8.814;2023-12-28T10:56:42;99441.78;;;12.67;100.00
64340;BME280;63709;53.258;-8.814;2023-12-28T10:59:46;99428.56;;;12.66;100.00
64340;BME280;63709;53.258;-8.814;2023-12-28T11:02:15;99434.25;;;12.63;100.00
64340;BME280;63709;53.258;-8.814;2023-12-28T11:04:48;99434.78;;;12.82;100.00
64340;BME280;63709;53.258;-8.814;2023-12-28T11:07:15;99450.84;;;12.82;100.00
64340;BME280;63709;53.258;-8.814;2023-12-28T11:09:42;99441.47;;;12.78;100.00
64340;BME280;63709;53.258;-8.814;2023-12-28T11:12:08;99449.38;;;12.88;100.00
64340;BME280;63709;53.258;-8.814;2023-12-28T11:14:41;99451.22;;;12.79;100.00
64340;BME280;63709;53.258;-8.814;2023-12-28T11:17:07;99443.69;;;12.41;100.00
64340;BME280;63709;53.258;-8.814;2023-12-28T11:19:34;99455.63;;;12.46;100.00
64340;BME280;63709;53.258;-8.814;2023-12-28T11:22:04;99458.47;;;12.53;100.00
64340;BME280;63709;53.258;-8.814;2023-12-28T11:24:31;99472.34;;;12.14;100.00
64340;BME280;63709;53.258;-8.814;2023-12-28T11:26:57;99459.03;;;12.30;100.00
64340;BME280;63709;53.258;-8.814;2023-12-28T11:29:23;99455.72;;;12.37;100.00
64340;BME280;63709;53.258;-8.814;2023-12-28T11:31:57;99461.53;;;12.24;100.00
64340;BME280;63709;53.258;-8.814;2023-12-28T11:34:29;99472.41;;;12.30;100.00
64340;BME280;63709;53.258;-8.814;2023-12-28T11:36:56;99467.88;;;12.31;100.00
64340;BME280;63709;53.258;-8.814;2023-12-28T11:39:35;99449.69;;;12.34;100.00
64340;BME280;63709;53.258;-8.814;2023-12-28T11:42:04;99455.22;;;12.33;100.00
64340;BME280;63709;53.258;-8.814;2023-12-28T11:44:31;99465.50;;;12.54;100.00
64340;BME280;63709;53.258;-8.814;2023-12-28T11:46:57;99464.97;;;12.42;100.00
64340;BME280;63709;53.258;-8.814;2023-12-28T11:49:26;99456.53;;;12.29;100.00
64340;BME280;63709;53.258;-8.814;2023-12-28T11:51:58;99456.25;;;12.40;100.00
64340;BME280;63709;53.258;-8.814;2023-12-28T11:54:25;99451.59;;;12.16;100.00
64340;BME280;63709;53.258;-8.814;2023-12-28T11:56:51;99450.63;;;12.17;100.00
64340;BME280;63709;53.258;-8.814;2023-12-28T11:59:18;99451.97;;;12.21;100.00
64340;BME280;63709;53.258;-8.814;2023-12-28T12:01:43;99459.47;;;12.18;100.00
64340;BME280;63709;53.258;-8.814;2023-12-28T12:04:09;99462.38;;;12.24;100.00
64340;BME280;63709;53.258;-8.814;2023-12-28T12:06:35;99461.06;;;12.37;100.00
64340;BME280;63709;53.258;-8.814;2023-12-28T12:09:01;99468.47;;;12.43;100.00
64340;BME280;63709;53.258;-8.814;2023-12-28T12:11:26;99474.38;;;12.54;100.00
64340;BME280;63709;53.258;-8.814;2023-12-28T12:13:53;99462.53;;;12.57;100.00
64340;BME280;63709;53.258;-8.814;2023-12-28T12:16:19;99461.88;;;12.71;100.00
64340;BME280;63709;53.258;-8.814;2023-12-28T12:18:44;99447.47;;;12.64;100.00
64340;BME280;63709;53.258;-8.814;2023-12-28T12:21:09;99446.63;;;12.64;100.00
64340;BME280;63709;53.258;-8.814;2023-12-28T12:23:35;99466.53;;;12.61;100.00
64340;BME280;63709;53.258;-8.814;2023-12-28T12:26:04;99453.38;;;12.76;100.00
64340;BME280;63709;53.258;-8.814;2023-12-28T12:28:30;99453.38;;;12.84;100.00
64340;BME280;63709;53.258;-8.814;2023-12-28T12:30:55;99452.13;;;13.13;100.00
64340;BME280;63709;53.258;-8.814;2023-12-28T12:33:22;99467.31;;;13.12;100.00
64340;BME280;63709;53.258;-8.814;2023-12-28T12:35:49;99470.19;;;13.02;100.00
64340;BME280;63709;53.258;-8.814;2023-12-28T12:38:15;99469.28;;;12.94;100.00
64340;BME280;63709;53.258;-8.814;2023-12-28T12:40:41;99455.75;;;12.95;100.00
64340;BME280;63709;53.258;-8.814;2023-12-28T12:43:06;99457.97;;;13.16;100.00
64340;BME280;63709;53.258;-8.814;2023-12-28T12:45:35;99453.97;;;13.20;100.00